Карточка аэропорта UAII

Внимание!
Информация на этой странице в стадии наполнения.
Если вы не увидели какой-то информации, или заметили неточность - пожалуйста сообщите нам!
Спасибо!
Команда RU-STAFF
Название аэропортаШымкент
Название аэропорта (англ.)Shymkent
Превышение1389 ft. (423.4 m.)
Координаты42°21.348', 69°28.734'
Высота перехода10000ft
Эшелон переходаFL120, QNH<733:FL130
Коды ответчика3430-3437, 3530-3537
Зона ОрВДШымкент РПИ (UAII)
Данные METARUAII 211200Z 28002MPS 230V330 9999 SCT046CB 27/12 Q1010 NOSIG RMK QFE721/0961
Проноз погоды (TAF)UAII 211116Z 2112/2212 22003G08MPS 9000 SCT040CB TX27/2209Z TN13/2201Z TEMPO 2112/2118 29006G13MPS -TSRA BKN020CB TEMPO 2118/2204 16005G11MPS 3100 -TSRA BR SCT011 BKN040CB TEMPO 2204/2212 28004G09MPS -TSRA BKN030CB
NOTAMshow/hide NOTAM
AWOS   TABLE

Информация о ВПП

ВПП Длина ВПП (м.) Покрытие Курс ВПП Частота ILS
103300Железобетон106111.7
283300Железобетон286110.3

Диспетчерские позиции

Позывной Наименование органа УВД Частота
UAII_TWRШымкент Вышка125.9
UAII_APPШымкент-Подход120.3



Спутниковое изображение